Time;durP1;ratioP1;P1;durP2;ratioP2;P2;SDS_P1;SDS_P2;PMS_P1;PMS_P2;Temp;Humidity;BMP_temperature;BMP_pressure;BME280_temperature;BME280_humidity;BME280_pressure;Samples;Min_cycle;Max_cycle;Signal;HPM_P1;HPM_P2
2021/08/14 00:00:39;;;;;;;8.58;4.78;;;;;;;18.57;61.32;99716.76;1870547;76;22584;-60
2021/08/14 00:03:15;;;;;;;8.80;4.67;;;;;;;18.56;61.53;99718.96;1870489;76;22125;-61
2021/08/14 00:05:50;;;;;;;7.65;4.40;;;;;;;18.54;61.59;99720.72;1870619;76;22136;-60
2021/08/14 00:08:26;;;;;;;8.13;4.72;;;;;;;18.53;61.86;99717.23;1854601;76;28376;-60
2021/08/14 00:11:20;;;;;;;6.62;4.17;;;;;;;18.60;62.47;99719.37;1889879;76;22148;-58
2021/08/14 00:13:55;;;;;;;8.55;4.40;;;;;;;18.60;62.34;99720.67;1854751;76;27922;-61
2021/08/14 00:16:31;;;;;;;7.97;4.62;;;;;;;18.65;62.94;99722.36;1861938;76;28013;-59
2021/08/14 00:19:06;;;;;;;7.90;4.50;;;;;;;18.65;63.83;99710.59;1870665;76;22177;-62
2021/08/14 00:21:41;;;;;;;8.65;4.17;;;;;;;18.73;63.66;99711.82;1870675;76;22143;-60
2021/08/14 00:24:15;;;;;;;6.85;4.08;;;;;;;18.73;63.71;99715.74;1870680;76;22189;-59
2021/08/14 00:26:51;;;;;;;6.12;3.85;;;;;;;18.73;63.95;99710.52;1870665;76;22140;-60
2021/08/14 00:29:45;;;;;;;8.15;4.25;;;;;;;18.75;64.83;99712.71;1860883;76;22153;-61
2021/08/14 00:32:20;;;;;;;9.03;4.80;;;;;;;18.75;64.65;99721.86;1854704;76;27914;-61
2021/08/14 00:34:56;;;;;;;10.10;4.70;;;;;;;18.79;64.51;99728.78;1873922;76;38666;-61
2021/08/14 00:37:31;;;;;;;8.70;4.42;;;;;;;18.79;64.40;99726.16;1870692;76;22588;-59
2021/08/14 00:40:13;;;;;;;7.47;4.37;;;;;;;18.74;64.11;99731.84;1869821;76;22145;-58
2021/08/14 00:43:08;;;;;;;8.13;4.80;;;;;;;18.69;63.76;99728.41;1854627;76;27930;-61
2021/08/14 00:45:43;;;;;;;8.90;4.47;;;;;;;18.68;63.42;99733.23;1889995;76;22108;-62
2021/08/14 00:48:21;;;;;;;7.97;4.75;;;;;;;18.63;63.44;99732.41;1854735;76;28341;-60
2021/08/14 00:51:09;;;;;;;6.67;3.95;;;;;;;18.62;63.34;99739.80;1877164;76;22187;-58
2021/08/14 00:54:03;;;;;;;7.30;4.08;;;;;;;18.40;63.41;99737.39;1874043;76;22215;-61
2021/08/14 00:56:57;;;;;;;12.95;4.80;;;;;;;18.44;63.38;99736.50;1870629;76;22121;-60
2021/08/14 00:59:53;;;;;;;7.53;4.60;;;;;;;18.39;63.87;99738.28;1870484;76;22145;-57
2021/08/14 01:02:47;;;;;;;6.08;3.98;;;;;;;18.35;63.92;99740.48;1867150;76;22631;-58
2021/08/14 01:05:22;;;;;;;8.28;4.40;;;;;;;18.31;64.74;99737.45;1873888;76;27896;-59
2021/08/14 01:07:57;;;;;;;7.67;4.10;;;;;;;18.35;65.29;99734.39;1870697;76;22132;-60
2021/08/14 01:10:38;;;;;;;6.97;3.80;;;;;;;18.32;65.76;99727.45;1869791;76;22575;-58
2021/08/14 01:13:14;;;;;;;10.63;4.08;;;;;;;18.29;66.02;99732.67;1860746;76;28315;-57
2021/08/14 01:16:09;;;;;;;6.70;3.90;;;;;;;18.26;66.42;99734.46;1870632;76;22199;-59
2021/08/14 01:18:47;;;;;;;7.25;3.80;;;;;;;18.33;66.69;99731.78;1890001;76;20093;-59
2021/08/14 01:21:51;;;;;;;6.87;3.67;;;;;;;18.30;67.01;99742.72;1865627;76;22144;-56
2021/08/14 01:24:45;;;;;;;8.25;3.75;;;;;;;18.35;67.38;99738.32;1870557;76;22120;-56
2021/08/14 01:27:41;;;;;;;6.55;3.50;;;;;;;18.34;67.65;99737.45;1888497;76;22685;-62
2021/08/14 01:30:15;;;;;;;6.50;3.80;;;;;;;18.39;67.88;99736.98;1870692;76;22113;-58
2021/08/14 01:33:16;;;;;;;9.03;4.40;;;;;;;18.39;67.63;99742.20;1890037;76;22200;-58
2021/08/14 01:36:15;;;;;;;6.15;3.52;;;;;;;18.29;68.14;99744.44;1861025;76;22202;-62
2021/08/14 01:39:08;;;;;;;7.62;4.35;;;;;;;18.34;68.34;99741.79;1870637;76;22156;-59
2021/08/14 01:42:02;;;;;;;5.97;3.87;;;;;;;18.25;68.64;99746.66;1867125;76;22187;-60
2021/08/14 01:44:38;;;;;;;8.80;4.60;;;;;;;18.31;69.08;99749.22;1870677;76;22140;-60
2021/08/14 01:47:32;;;;;;;8.60;3.83;;;;;;;18.30;69.21;99745.33;1870612;76;22121;-59
2021/08/14 01:50:08;;;;;;;7.12;4.10;;;;;;;18.29;68.75;99740.96;1870224;76;22531;-60
2021/08/14 01:52:43;;;;;;;8.48;4.33;;;;;;;18.28;67.82;99743.16;1840220;76;28014;-56
2021/08/14 01:55:17;;;;;;;9.70;4.78;;;;;;;18.30;67.16;99740.96;1876929;76;22138;-58
2021/08/14 01:57:52;;;;;;;14.73;9.25;;;;;;;18.27;66.19;99746.63;1870571;76;22140;-59
2021/08/14 02:00:28;;;;;;;9.40;5.72;;;;;;;18.20;65.37;99749.75;1854633;76;27912;-59
2021/08/14 02:03:03;;;;;;;8.80;5.25;;;;;;;18.08;64.49;99747.22;1889921;76;22566;-58
2021/08/14 02:06:06;;;;;;;9.93;4.97;;;;;;;18.12;64.36;99749.80;1853748;76;22209;-60
2021/08/14 02:08:41;;;;;;;7.47;4.42;;;;;;;18.03;64.18;99738.11;1864170;76;22140;-60
2021/08/14 02:11:26;;;;;;;7.22;4.60;;;;;;;17.95;63.92;99734.23;1845744;76;22199;-55
2021/08/14 02:14:20;;;;;;;9.48;4.33;;;;;;;17.74;65.37;99735.22;1848775;76;22585;-59
2021/08/14 02:16:54;;;;;;;9.25;5.10;;;;;;;17.81;64.85;99733.48;1870722;76;22113;-61
2021/08/14 02:19:29;;;;;;;13.93;5.40;;;;;;;17.77;65.07;99734.33;1870659;76;22567;-54
2021/08/14 02:22:23;;;;;;;9.58;5.58;;;;;;;17.73;65.45;99743.05;1865557;76;22168;-60
2021/08/14 02:24:59;;;;;;;10.30;5.15;;;;;;;17.71;65.50;99731.33;1852990;76;38289;-57
2021/08/14 02:27:34;;;;;;;10.05;5.58;;;;;;;17.76;65.57;99736.08;1835156;76;28041;-63
2021/08/14 02:30:11;;;;;;;9.15;4.90;;;;;;;17.83;65.61;99742.59;1854104;76;27992;-63
2021/08/14 02:32:48;;;;;;;9.38;5.33;;;;;;;17.85;65.05;99738.23;1870214;76;22168;-59
2021/08/14 02:35:28;;;;;;;9.18;4.70;;;;;;;17.77;65.04;99741.72;1869781;76;22165;-58
2021/08/14 02:38:03;;;;;;;12.75;4.92;;;;;;;17.71;65.08;99738.30;1870749;76;22141;-65
2021/08/14 02:40:57;;;;;;;9.20;4.67;;;;;;;17.69;65.20;99738.73;1889920;76;22151;-66
2021/08/14 02:43:32;;;;;;;10.93;4.97;;;;;;;17.65;64.72;99739.61;1870789;76;22145;-61
2021/08/14 02:46:08;;;;;;;11.73;5.42;;;;;;;17.58;64.74;99734.44;1854811;76;27890;-62
2021/08/14 02:48:49;;;;;;;10.18;5.22;;;;;;;17.56;64.87;99738.80;1869797;76;22231;-57
2021/08/14 02:51:23;;;;;;;8.40;5.33;;;;;;;17.50;64.96;99733.62;1870710;76;22579;-61
2021/08/14 02:54:00;;;;;;;11.15;4.70;;;;;;;17.44;65.05;99729.71;1870439;76;20101;-62
2021/08/14 02:56:35;;;;;;;11.53;6.03;;;;;;;17.41;65.27;99738.00;1854633;76;27923;-61
2021/08/14 02:59:17;;;;;;;10.82;4.95;;;;;;;17.32;65.78;99738.89;1889935;76;22189;-56
2021/08/14 03:01:51;;;;;;;8.90;5.40;;;;;;;17.36;65.63;99734.11;1889992;76;22108;-59
2021/08/14 03:04:33;;;;;;;8.35;5.60;;;;;;;17.30;65.94;99737.61;1869738;76;22157;-59
2021/08/14 03:07:09;;;;;;;9.93;6.30;;;;;;;17.25;66.13;99732.85;1854634;76;30292;-58
2021/08/14 03:09:44;;;;;;;11.05;6.20;;;;;;;17.27;66.27;99738.05;1873893;76;27906;-60
2021/08/14 03:12:38;;;;;;;10.03;5.42;;;;;;;17.30;66.37;99731.09;1870648;76;22112;-60
2021/08/14 03:15:14;;;;;;;8.95;5.30;;;;;;;17.30;66.40;99734.11;1870459;76;22153;-57
2021/08/14 03:17:54;;;;;;;14.75;6.00;;;;;;;17.29;66.32;99735.86;1870479;76;22140;-60
2021/08/14 03:20:54;;;;;;;20.25;5.15;;;;;;;17.30;66.30;99738.02;1890119;76;22212;-59
2021/08/14 03:23:48;;;;;;;8.38;5.00;;;;;;;17.30;66.02;99736.72;1889913;76;22148;-58
2021/08/14 03:26:41;;;;;;;8.88;4.45;;;;;;;17.30;65.94;99736.72;1870616;76;22527;-57
2021/08/14 03:29:17;;;;;;;13.30;5.00;;;;;;;17.30;65.84;99739.33;1870618;76;22101;-56
2021/08/14 03:31:52;;;;;;;10.63;5.45;;;;;;;17.31;65.51;99731.95;1889975;76;22108;-57
2021/08/14 03:34:27;;;;;;;9.50;4.87;;;;;;;17.32;65.50;99729.31;1889926;76;22167;-60
2021/08/14 03:37:08;;;;;;;10.00;5.15;;;;;;;17.35;65.64;99730.63;1869743;76;22583;-61
2021/08/14 03:39:44;;;;;;;10.05;5.60;;;;;;;17.37;65.71;99728.00;1843225;76;28445;-57
2021/08/14 03:42:19;;;;;;;9.40;4.80;;;;;;;17.44;65.47;99727.55;1855549;76;22183;-61
2021/08/14 03:44:53;;;;;;;7.10;4.65;;;;;;;17.47;65.23;99731.44;1889929;76;22604;-58
2021/08/14 03:47:31;;;;;;;8.68;4.80;;;;;;;17.50;64.75;99733.62;1889984;76;22128;-62
2021/08/14 03:50:08;;;;;;;10.53;5.33;;;;;;;17.52;64.58;99729.23;1854653;76;27861;-59
2021/08/14 03:53:03;;;;;;;9.05;4.70;;;;;;;17.60;64.28;99726.58;1889931;76;22171;-57
2021/08/14 03:55:39;;;;;;;10.50;6.25;;;;;;;17.61;64.26;99726.17;1854608;76;38207;-60
2021/08/14 03:58:19;;;;;;;11.53;6.47;;;;;;;17.68;64.41;99725.23;1869822;76;22162;-64
2021/08/14 04:00:54;;;;;;;11.78;7.05;;;;;;;17.69;64.59;99729.59;1870596;76;22152;-67
2021/08/14 04:03:40;;;;;;;11.18;7.00;;;;;;;17.68;65.21;99731.34;1890095;76;22201;-61
2021/08/14 04:06:40;;;;;;;12.85;6.45;;;;;;;17.66;65.48;99737.01;1869681;76;22186;-61
2021/08/14 04:09:21;;;;;;;8.25;5.92;;;;;;;17.67;65.43;99736.56;1869736;76;22172;-59
2021/08/14 04:12:05;;;;;;;9.43;5.58;;;;;;;17.69;65.19;99732.20;1847857;77;22292;-63
2021/08/14 04:14:46;;;;;;;12.55;6.50;;;;;;;17.73;65.08;99732.60;1890215;76;22156;-61
2021/08/14 04:17:21;;;;;;;11.25;5.78;;;;;;;17.78;65.08;99725.61;1889952;76;22579;-61
2021/08/14 04:20:04;;;;;;;9.85;7.05;;;;;;;17.84;65.22;99737.38;1869821;76;22178;-61
2021/08/14 04:22:41;;;;;;;9.18;5.90;;;;;;;17.89;65.35;99732.98;1870456;76;22226;-60
2021/08/14 04:25:15;;;;;;;10.43;6.22;;;;;;;17.92;65.28;99732.10;1870674;76;22202;-59
2021/08/14 04:28:11;;;;;;;10.93;6.12;;;;;;;17.99;65.22;99738.58;1889932;76;22168;-62
2021/08/14 04:31:10;;;;;;;10.88;7.17;;;;;;;18.08;65.21;99740.69;1869784;76;22116;-64
2021/08/14 04:34:04;;;;;;;12.35;6.25;;;;;;;18.14;65.39;99740.22;1870639;76;22141;-59
2021/08/14 04:36:39;;;;;;;12.35;7.00;;;;;;;18.24;65.42;99746.22;1873951;76;38209;-63
2021/08/14 04:39:33;;;;;;;11.48;6.58;;;;;;;18.39;65.44;99750.45;1889924;76;22116;-59
2021/08/14 04:42:08;;;;;;;9.13;5.62;;;;;;;18.46;65.43;99750.84;1870707;76;22121;-63
2021/08/14 04:44:43;;;;;;;9.28;5.90;;;;;;;18.55;65.78;99740.32;1870656;76;22163;-63
2021/08/14 04:47:39;;;;;;;10.20;5.08;;;;;;;18.66;65.88;99746.30;1873872;76;37988;-64
2021/08/14 04:50:14;;;;;;;10.13;5.47;;;;;;;18.81;66.54;99748.39;1873871;76;27935;-60
2021/08/14 04:53:08;;;;;;;8.75;5.00;;;;;;;19.03;67.17;99743.77;1870627;76;22133;-61
2021/08/14 04:55:43;;;;;;;12.07;5.40;;;;;;;19.17;66.95;99745.81;1870688;76;22616;-61
2021/08/14 04:58:17;;;;;;;13.58;6.55;;;;;;;19.34;66.23;99751.30;1889952;76;22100;-60
2021/08/14 05:00:52;;;;;;;9.70;6.65;;;;;;;19.49;65.67;99744.56;1870679;76;22601;-65
2021/08/14 05:03:27;;;;;;;11.15;6.70;;;;;;;19.65;65.11;99747.39;1870660;76;22152;-63
2021/08/14 05:06:02;;;;;;;11.20;6.70;;;;;;;19.78;64.63;99744.64;1873882;76;27914;-60
2021/08/14 05:09:05;;;;;;;10.15;5.60;;;;;;;19.95;64.68;99743.97;1889859;76;22158;-65
2021/08/14 05:11:39;;;;;;;13.93;7.00;;;;;;;20.05;64.74;99742.05;1873904;76;27939;-60
2021/08/14 05:14:14;;;;;;;13.22;7.08;;;;;;;20.23;64.57;99745.72;1870631;76;22571;-66
2021/08/14 05:16:51;;;;;;;12.37;6.58;;;;;;;20.34;64.02;99744.23;1889906;76;22562;-61
2021/08/14 05:19:25;;;;;;;9.45;6.12;;;;;;;20.50;63.87;99748.31;1870678;76;22105;-61
2021/08/14 05:22:00;;;;;;;8.75;6.17;;;;;;;20.73;63.34;99745.31;1870583;76;22571;-66
2021/08/14 05:24:36;;;;;;;15.32;6.78;;;;;;;21.62;61.77;99747.98;1854624;76;28364;-66
2021/08/14 05:27:11;;;;;;;14.30;5.83;;;;;;;23.30;58.39;99752.62;1870666;76;22116;-63
2021/08/14 05:29:46;;;;;;;10.75;5.60;;;;;;;25.22;53.33;99758.39;1870653;76;22163;-61
2021/08/14 05:32:22;;;;;;;12.78;5.70;;;;;;;27.01;48.46;99771.55;1870395;76;22164;-61
2021/08/14 05:35:16;;;;;;;9.68;6.10;;;;;;;28.77;44.25;99769.89;1890027;76;22562;-62
2021/08/14 05:37:51;;;;;;;10.45;5.47;;;;;;;29.83;41.26;99776.75;1870661;76;22563;-64
2021/08/14 05:40:45;;;;;;;8.40;5.42;;;;;;;31.12;37.57;99784.81;1889935;76;22578;-65
2021/08/14 05:43:39;;;;;;;7.97;5.58;;;;;;;31.80;35.75;99789.95;1890005;76;22206;-63
2021/08/14 05:46:32;;;;;;;9.98;6.05;;;;;;;33.02;34.07;99796.22;1889906;76;22252;-59
2021/08/14 05:49:13;;;;;;;9.68;5.80;;;;;;;33.47;33.18;99802.85;1869799;76;22525;-63
2021/08/14 05:51:48;;;;;;;18.62;6.78;;;;;;;34.12;31.93;99811.19;1889974;76;22082;-64
2021/08/14 05:54:41;;;;;;;13.58;7.62;;;;;;;34.94;30.83;99816.67;1889907;76;22244;-65
2021/08/14 05:57:16;;;;;;;10.58;7.10;;;;;;;35.68;29.56;99820.35;1890082;76;22239;-66
2021/08/14 05:59:51;;;;;;;11.30;6.53;;;;;;;35.95;29.01;99820.43;1889984;76;22042;-62
2021/08/14 06:02:26;;;;;;;10.68;6.05;;;;;;;36.39;28.54;99826.73;1870806;76;22152;-63
2021/08/14 06:05:00;;;;;;;9.98;5.97;;;;;;;37.01;27.31;99827.30;1870662;76;22553;-64
2021/08/14 06:07:35;;;;;;;9.75;4.92;;;;;;;37.35;26.76;99834.71;1890070;76;22170;-62
2021/08/14 06:10:11;;;;;;;10.82;5.25;;;;;;;37.48;26.02;99836.30;1889951;76;22045;-64
2021/08/14 06:12:47;;;;;;;8.53;4.78;;;;;;;37.58;26.17;99839.95;1870643;76;22083;-65
2021/08/14 06:15:41;;;;;;;11.00;5.20;;;;;;;38.04;25.42;99842.63;1870623;76;22498;-64
2021/08/14 06:18:15;;;;;;;8.08;4.17;;;;;;;38.39;24.53;99848.83;1889961;76;22070;-60
2021/08/14 06:21:10;;;;;;;9.78;4.67;;;;;;;38.53;24.29;99848.13;1870594;76;22063;-59
2021/08/14 06:23:45;;;;;;;10.23;4.37;;;;;;;38.58;23.96;99852.59;1874089;76;33858;-62
2021/08/14 06:26:20;;;;;;;9.33;4.50;;;;;;;38.42;23.93;99844.53;1874038;76;27907;-62
2021/08/14 06:28:55;;;;;;;7.47;4.03;;;;;;;38.57;24.10;99845.01;1870636;76;22489;-66
2021/08/14 06:31:30;;;;;;;6.03;3.70;;;;;;;39.18;23.41;99850.56;1870668;76;22528;-63
2021/08/14 06:34:05;;;;;;;10.25;3.77;;;;;;;39.75;22.45;99850.56;1870665;76;22054;-66
2021/08/14 06:36:58;;;;;;;6.28;3.58;;;;;;;39.47;22.19;99850.52;1889848;76;22086;-61
2021/08/14 06:39:32;;;;;;;5.30;3.47;;;;;;;39.18;22.46;99851.06;1889917;76;22081;-61
2021/08/14 06:42:08;;;;;;;7.37;4.30;;;;;;;39.12;22.55;99849.80;1870619;76;22083;-60
2021/08/14 06:44:43;;;;;;;8.98;3.55;;;;;;;39.07;22.52;99847.53;1870657;76;22074;-64
2021/08/14 06:47:38;;;;;;;4.97;3.02;;;;;;;39.54;22.41;99852.14;1870656;76;22075;-66
2021/08/14 06:50:12;;;;;;;3.85;2.40;;;;;;;40.29;21.16;99857.50;1870717;76;20347;-62
2021/08/14 06:52:54;;;;;;;5.10;2.72;;;;;;;41.10;19.61;99854.73;1889934;76;22139;-63
2021/08/14 06:55:28;;;;;;;5.08;2.20;;;;;;;40.94;19.36;99858.62;1889998;76;22049;-63
2021/08/14 06:58:03;;;;;;;5.90;2.62;;;;;;;40.39;19.26;99857.44;1870695;76;22047;-64
2021/08/14 07:00:38;;;;;;;6.03;2.45;;;;;;;39.96;19.79;99856.25;1870669;76;22082;-61
2021/08/14 07:03:33;;;;;;;7.37;2.72;;;;;;;39.57;20.24;99855.05;1889871;76;22670;-65
2021/08/14 07:06:08;;;;;;;5.47;2.40;;;;;;;39.47;20.40;99850.52;1870679;76;22457;-60
2021/08/14 07:08:43;;;;;;;4.83;2.85;;;;;;;39.37;20.89;99857.80;1870713;76;22070;-64
2021/08/14 07:11:23;;;;;;;4.78;2.42;;;;;;;40.19;19.73;99850.77;1889959;76;22098;-61
2021/08/14 07:14:17;;;;;;;5.03;2.55;;;;;;;40.62;19.23;99858.67;1870630;76;22082;-64
2021/08/14 07:16:52;;;;;;;6.75;2.45;;;;;;;41.10;19.03;99851.17;1870752;76;22078;-63
2021/08/14 07:19:27;;;;;;;6.20;2.42;;;;;;;41.62;18.36;99852.52;1850867;77;22516;-61
2021/08/14 07:22:27;;;;;;;5.72;2.65;;;;;;;42.03;18.01;99856.78;1869959;76;22054;-65
2021/08/14 07:25:02;;;;;;;5.22;2.55;;;;;;;42.01;17.95;99851.53;1870703;76;22066;-64
2021/08/14 07:27:37;;;;;;;5.08;2.47;;;;;;;41.70;18.31;99855.77;1889966;76;22077;-65
2021/08/14 07:30:13;;;;;;;4.22;2.30;;;;;;;41.38;18.12;99843.73;1889953;76;22082;-63
2021/08/14 07:33:07;;;;;;;3.65;2.22;;;;;;;41.47;18.15;99841.91;1870599;76;22501;-64
2021/08/14 07:35:43;;;;;;;3.98;2.35;;;;;;;41.30;18.42;99839.63;1870709;76;22116;-64
2021/08/14 07:38:37;;;;;;;5.15;2.25;;;;;;;42.56;17.42;99846.58;1889929;76;20211;-63
2021/08/14 07:41:33;;;;;;;4.87;2.40;;;;;;;43.36;16.61;99853.55;1847787;75;27863;-62
2021/08/14 07:44:23;;;;;;;5.30;2.20;;;;;;;43.44;16.17;99856.23;1870565;76;22051;-63
2021/08/14 07:47:16;;;;;;;5.90;2.30;;;;;;;42.80;16.54;99840.33;1870659;76;22082;-64
2021/08/14 07:50:10;;;;;;;4.90;2.10;;;;;;;42.62;16.61;99836.39;1870657;76;22079;-62
2021/08/14 07:52:45;;;;;;;3.98;2.00;;;;;;;42.57;16.53;99836.92;1870708;76;22469;-59
2021/08/14 07:55:39;;;;;;;3.85;1.90;;;;;;;42.63;16.79;99835.39;1870720;76;22079;-65
2021/08/14 07:58:16;;;;;;;6.67;2.33;;;;;;;43.05;16.76;99833.87;1870695;76;22161;-63
2021/08/14 08:00:51;;;;;;;4.83;2.12;;;;;;;43.63;16.35;99841.41;1870774;76;22196;-62
2021/08/14 08:03:44;;;;;;;6.05;2.33;;;;;;;44.39;15.88;99836.30;1870669;76;22505;-59
2021/08/14 08:06:19;;;;;;;4.72;2.37;;;;;;;44.84;15.44;99837.33;1870623;76;22050;-65
2021/08/14 08:08:57;;;;;;;4.60;2.20;;;;;;;44.26;15.48;99831.42;1870671;76;22157;-64
2021/08/14 08:11:33;;;;;;;3.50;1.98;;;;;;;43.51;15.86;99840.93;1870453;76;22130;-65
2021/08/14 08:14:27;;;;;;;4.95;1.85;;;;;;;43.57;15.39;99831.22;1889892;76;22168;-66
2021/08/14 08:17:07;;;;;;;4.42;1.70;;;;;;;43.31;15.37;99837.76;1869819;76;22079;-64
2021/08/14 08:20:04;;;;;;;3.65;1.72;;;;;;;43.48;15.03;99834.98;1870638;76;22090;-64
2021/08/14 08:22:58;;;;;;;2.58;1.45;;;;;;;43.77;14.77;99844.77;1889891;76;22144;-67
2021/08/14 08:25:33;;;;;;;4.53;1.67;;;;;;;44.14;14.76;99833.70;1870784;76;22395;-65
2021/08/14 08:28:27;;;;;;;3.17;1.87;;;;;;;44.33;15.01;99834.28;1870676;76;22094;-62
2021/08/14 08:31:03;;;;;;;4.50;1.70;;;;;;;44.75;14.98;99831.06;1890049;76;22076;-59
2021/08/14 08:34:03;;;;;;;4.22;1.92;;;;;;;44.48;14.79;99833.86;1869781;76;22584;-62
2021/08/14 08:36:56;;;;;;;3.02;1.60;;;;;;;43.98;15.18;99825.13;1870698;76;22050;-61
2021/08/14 08:39:32;;;;;;;3.08;1.70;;;;;;;43.40;15.70;99822.27;1870659;76;22166;-65
2021/08/14 08:42:08;;;;;;;3.27;1.90;;;;;;;43.27;16.25;99820.09;1870669;76;22086;-66
2021/08/14 08:45:04;;;;;;;4.42;2.00;;;;;;;43.61;15.47;99820.86;1854892;76;27899;-63
2021/08/14 08:47:43;;;;;;;5.95;2.30;;;;;;;43.23;15.79;99807.89;1889973;76;22074;-66
2021/08/14 08:50:37;;;;;;;4.12;1.80;;;;;;;41.82;16.74;99798.89;1870657;76;22082;-62
2021/08/14 08:53:31;;;;;;;2.90;1.82;;;;;;;40.83;17.68;99796.61;1870607;76;22079;-59
2021/08/14 08:56:06;;;;;;;3.98;1.90;;;;;;;40.75;17.72;99792.83;1870645;76;22086;-63
2021/08/14 08:58:40;;;;;;;3.65;1.77;;;;;;;40.29;17.81;99789.37;1870685;76;22482;-66
2021/08/14 09:01:35;;;;;;;4.33;2.10;;;;;;;39.58;18.44;99789.20;1889927;76;22497;-62
2021/08/14 09:04:31;;;;;;;4.40;1.92;;;;;;;39.40;18.67;99784.58;1870706;76;22043;-65
2021/08/14 09:07:28;;;;;;;6.40;2.30;;;;;;;38.79;19.64;99775.03;1870532;76;22126;-66
2021/08/14 09:10:24;;;;;;;5.00;2.37;;;;;;;38.81;19.62;99778.95;1870594;76;22486;-61
2021/08/14 09:13:21;;;;;;;6.20;2.10;;;;;;;38.74;19.73;99773.27;1870449;76;22062;-60
2021/08/14 09:16:23;;;;;;;5.17;2.50;;;;;;;37.90;19.10;99766.17;1882198;76;22509;-64
2021/08/14 09:19:05;;;;;;;5.47;2.30;;;;;;;36.47;21.07;99762.41;1890133;76;22208;-61
2021/08/14 09:22:17;;;;;;;5.55;2.52;;;;;;;35.33;22.59;99756.86;1870649;76;22624;-61
2021/08/14 09:24:52;;;;;;;8.58;2.70;;;;;;;34.72;22.86;99749.07;1870797;76;22160;-63
2021/08/14 09:27:27;;;;;;;7.72;2.50;;;;;;;34.43;23.28;99749.09;1889980;76;22081;-61
2021/08/14 09:30:03;;;;;;;5.80;2.15;;;;;;;34.12;23.87;99742.02;1870611;76;22497;-60
2021/08/14 09:32:38;;;;;;;4.62;2.65;;;;;;;33.72;24.02;99743.58;1870618;76;20093;-62
2021/08/14 09:35:37;;;;;;;4.22;2.12;;;;;;;33.21;24.41;99739.64;1869813;76;22055;-61
2021/08/14 09:38:15;;;;;;;5.35;2.87;;;;;;;32.90;24.77;99737.75;1870720;76;22208;-63
2021/08/14 09:40:49;;;;;;;6.37;2.40;;;;;;;32.41;25.65;99727.69;1870870;76;22244;-61
2021/08/14 09:43:35;;;;;;;5.35;2.40;;;;;;;31.95;26.56;99725.41;1870708;76;22485;-65
2021/08/14 09:46:11;;;;;;;5.05;2.70;;;;;;;31.28;27.23;99724.70;1870721;76;20208;-65
2021/08/14 09:49:06;;;;;;;4.67;2.60;;;;;;;30.51;27.39;99721.85;1870429;76;20101;-61
2021/08/14 09:51:42;;;;;;;4.30;2.50;;;;;;;30.00;28.45;99715.45;1870566;76;20094;-66
2021/08/14 09:54:38;;;;;;;4.17;2.17;;;;;;;29.64;28.77;99712.56;1870606;76;22252;-61
2021/08/14 09:57:16;;;;;;;5.03;2.25;;;;;;;29.41;29.15;99702.31;1889966;76;22168;-60
2021/08/14 10:00:13;;;;;;;6.58;2.75;;;;;;;29.16;29.82;99700.17;1870619;76;22287;-62
2021/08/14 10:02:48;;;;;;;6.72;2.50;;;;;;;28.97;30.22;99694.45;1889984;76;22078;-63
2021/08/14 10:05:45;;;;;;;4.17;2.22;;;;;;;28.89;30.87;99694.48;1870557;76;22091;-63
2021/08/14 10:08:41;;;;;;;6.42;3.02;;;;;;;28.83;30.64;99685.52;1870661;76;22306;-62
2021/08/14 10:11:16;;;;;;;6.85;2.65;;;;;;;28.60;30.67;99691.56;1870735;76;22632;-63
2021/08/14 10:14:13;;;;;;;4.33;2.02;;;;;;;28.10;31.28;99681.67;1870426;76;22152;-64
2021/08/14 10:17:16;;;;;;;5.03;2.22;;;;;;;27.90;31.06;99684.84;1869764;76;22173;-62
2021/08/14 10:20:11;;;;;;;6.08;2.47;;;;;;;27.83;30.85;99679.43;1870633;76;22286;-64
2021/08/14 10:23:09;;;;;;;7.92;3.02;;;;;;;27.73;30.44;99668.84;1870601;76;22125;-63
2021/08/14 10:25:46;;;;;;;4.62;2.37;;;;;;;27.65;30.93;99664.38;1870629;76;22271;-62
2021/08/14 10:28:48;;;;;;;4.22;2.33;;;;;;;27.64;31.65;99662.68;1870413;76;22184;-61
2021/08/14 10:31:46;;;;;;;6.03;2.50;;;;;;;27.76;31.38;99664.74;1870563;76;22251;-64
2021/08/14 10:34:40;;;;;;;4.80;2.25;;;;;;;27.91;31.69;99658.72;1864291;76;22178;-60
2021/08/14 10:37:34;;;;;;;4.92;2.30;;;;;;;28.06;31.72;99653.56;1870580;76;22599;-62
2021/08/14 10:40:11;;;;;;;4.08;2.30;;;;;;;28.10;30.87;99655.14;1870730;76;22133;-60
2021/08/14 10:42:58;;;;;;;6.28;2.20;;;;;;;28.11;30.65;99656.84;1870655;76;22555;-61
2021/08/14 10:45:37;;;;;;;4.55;2.40;;;;;;;28.06;30.96;99646.48;1889920;76;22156;-60
2021/08/14 10:48:53;;;;;;;4.15;1.98;;;;;;;28.03;31.49;99644.44;1870544;76;22544;-60
2021/08/14 10:51:53;;;;;;;6.62;2.52;;;;;;;28.06;30.90;99644.27;1870425;76;22563;-63
2021/08/14 10:54:57;;;;;;;4.33;2.17;;;;;;;28.05;31.06;99651.86;1870675;76;22132;-63
2021/08/14 10:57:50;;;;;;;4.50;2.40;;;;;;;28.09;31.32;99649.45;1854027;76;28300;-60
2021/08/14 11:00:52;;;;;;;4.62;2.20;;;;;;;28.27;31.50;99649.84;1889886;76;22206;-63
2021/08/14 11:03:33;;;;;;;5.65;2.37;;;;;;;28.38;31.23;99651.94;1870584;76;22217;-62
2021/08/14 11:06:36;;;;;;;6.20;2.45;;;;;;;28.46;31.29;99642.28;1870464;76;22152;-60
2021/08/14 11:09:24;;;;;;;4.05;2.05;;;;;;;28.53;31.72;99645.86;1870637;76;22237;-60
2021/08/14 11:12:01;;;;;;;4.08;2.05;;;;;;;28.56;31.36;99636.88;1870633;76;22137;-63
2021/08/14 11:15:22;;;;;;;5.53;2.35;;;;;;;28.70;31.70;99635.69;1854805;76;27899;-62
2021/08/14 11:18:01;;;;;;;5.08;3.02;;;;;;;28.82;31.34;99636.81;1870691;76;22159;-62
2021/08/14 11:20:41;;;;;;;6.30;2.87;;;;;;;28.82;31.27;99635.97;1889943;76;22515;-64
2021/08/14 11:23:39;;;;;;;5.37;2.30;;;;;;;28.86;30.92;99633.55;1870401;76;22152;-65
2021/08/14 11:26:37;;;;;;;3.87;2.00;;;;;;;28.85;29.57;99631.81;1889880;76;22112;-67
2021/08/14 11:29:38;;;;;;;5.40;1.98;;;;;;;28.83;29.27;99624.42;1889977;76;22117;-61
2021/08/14 11:32:32;;;;;;;4.40;1.65;;;;;;;28.90;29.52;99626.66;1870518;76;22160;-64
2021/08/14 11:35:27;;;;;;;5.08;2.20;;;;;;;29.03;29.91;99622.86;1870645;76;22145;-61
2021/08/14 11:38:12;;;;;;;6.10;2.50;;;;;;;29.14;29.70;99619.16;1854908;76;28296;-64
2021/08/14 11:41:21;;;;;;;4.70;2.22;;;;;;;29.28;29.37;99616.20;1870609;76;22137;-60
2021/08/14 11:44:03;;;;;;;5.37;2.02;;;;;;;29.44;29.70;99619.73;1889962;76;22282;-60
2021/08/14 11:47:02;;;;;;;4.42;2.12;;;;;;;29.61;28.59;99615.62;1870656;76;22145;-63
2021/08/14 11:50:00;;;;;;;5.78;2.40;;;;;;;29.75;28.42;99608.70;1870672;76;22537;-61
2021/08/14 11:52:41;;;;;;;6.05;1.82;;;;;;;29.86;29.11;99609.77;1889917;76;22135;-60
2021/08/14 11:55:37;;;;;;;5.42;2.20;;;;;;;30.04;29.15;99609.64;1870667;76;22551;-64
2021/08/14 11:58:11;;;;;;;4.70;2.55;;;;;;;30.12;28.40;99611.37;1854772;76;27900;-60
2021/08/14 12:01:05;;;;;;;6.28;2.35;;;;;;;30.33;28.03;99605.28;1870763;76;22105;-62
2021/08/14 12:03:40;;;;;;;3.98;2.25;;;;;;;30.59;27.44;99602.84;1889934;76;22259;-59
2021/08/14 12:06:16;;;;;;;6.17;2.35;;;;;;;30.62;27.13;99595.98;1889931;76;22050;-64
2021/08/14 12:08:52;;;;;;;5.37;2.53;;;;;;;30.63;27.28;99598.56;1854939;76;27879;-63
2021/08/14 12:11:46;;;;;;;5.55;2.60;;;;;;;30.81;27.17;99595.23;1870628;76;22248;-62
2021/08/14 12:14:43;;;;;;;4.22;2.02;;;;;;;31.05;27.04;99593.32;1889866;76;22086;-61
2021/08/14 12:17:44;;;;;;;4.40;2.42;;;;;;;31.13;27.14;99588.34;1889887;76;22248;-62
2021/08/14 12:20:29;;;;;;;8.28;2.67;;;;;;;31.16;27.50;99585.48;1854002;76;22220;-61
2021/08/14 12:23:27;;;;;;;5.45;2.05;;;;;;;31.01;27.52;99586.45;1856484;76;22036;-62
2021/08/14 12:26:26;;;;;;;4.90;2.52;;;;;;;31.03;28.38;99584.08;1870719;76;22135;-63
2021/08/14 12:29:23;;;;;;;7.45;2.35;;;;;;;31.04;28.58;99579.14;1889901;76;22243;-60
2021/08/14 12:32:18;;;;;;;5.20;2.30;;;;;;;31.07;28.46;99571.42;1870409;76;22172;-62
2021/08/14 12:35:14;;;;;;;4.80;2.42;;;;;;;31.14;28.37;99574.05;1870673;76;22212;-61
2021/08/14 12:38:10;;;;;;;3.85;2.42;;;;;;;31.22;28.10;99571.77;1889933;76;20105;-62
2021/08/14 12:40:57;;;;;;;4.75;2.40;;;;;;;31.19;27.68;99570.61;1870708;76;22051;-61
2021/08/14 12:43:35;;;;;;;6.95;2.33;;;;;;;31.04;27.87;99568.48;1870637;76;22266;-61
2021/08/14 12:46:21;;;;;;;3.62;2.27;;;;;;;31.07;27.92;99570.94;1889887;76;22654;-64
2021/08/14 12:49:25;;;;;;;4.00;2.35;;;;;;;31.03;28.09;99557.90;1870527;76;22090;-63
2021/08/14 12:52:11;;;;;;;6.97;2.95;;;;;;;30.91;28.18;99551.08;1889909;76;22542;-62